• Join FlightAware (Why Join?)
  • Login
  • US Flag 
12:28AM EDT


 

Airport Tracker/Info


-or-


 

Live Flight TrackerFlight Track Log ✈ N46PA ✈ 12-May-2013 ✈ KELN - KBFI

Flight Track Log - Related Links

Times and Time Zones

All times are in EDT time to prevent confusion due to time zone crossing. See the N46PA flight status page for this flight to view local times or setup timezone preferences in your user account.

Time Position Orientation Groundspeed Altitude Reporting Facility
EDT Latitude Longitude Course Direction KTS MPH feet Rate Location/Type
06:01PM 47.1661 -120.3286 286° West 123 142 8,400  Level Seattle Center
06:02PM 47.1353 -120.3583 213° Southwest 132 152 8,700 480 Climbing Seattle Center
06:03PM 47.1061 -120.3811 208° Southwest 121 139 9,400 300 Climbing Seattle Center
06:04PM 47.0789 -120.4108 217° Southwest 125 144 9,400 60 Level Seattle Center
06:05PM 47.0453 -120.4408 211° Southwest 141 162 9,600 240 Climbing Seattle Center
06:06PM 47.0253 -120.4722 227° Southwest 115 132 10,000 180 Climbing Seattle Center
06:07PM 47.1090 -120.8447 286° West  Level FlightAware Approximate
06:07PM 47.0394 -120.5308 290° West 141 162 10,000  Level Seattle Center
06:08PM 47.0522 -120.5867 289° West 144 166 10,000  Level Seattle Center
06:09PM 47.0633 -120.6389 287° West 133 153 10,000  Level Seattle Center
06:10PM 47.0753 -120.6906 289° West 136 157 10,000  Level Seattle Center
06:11PM 47.0897 -120.7514 289° West 132 152 10,000  Level Seattle Center
06:12PM 47.1000 -120.7983 288° West 123 142 10,000  Level Seattle Center
06:13PM 47.1117 -120.8483 289° West 123 142 10,100  Climbing Seattle Center
06:14PM 47.1214 -120.8919 288° West 116 133 10,100  Level Seattle Center
06:15PM 47.1339 -120.9389 291° West 124 143 10,100  Level Seattle Center
06:16PM 47.1439 -120.9831 288° West 128 147 10,100  Level Seattle Center
06:17PM 47.1550 -121.0344 288° West 134 154 10,100  Level Seattle Center
06:19PM 47.1642 -121.0903 284° West 139 160 10,100 -60 Level Seattle Center
06:20PM 47.1789 -121.1439 292° West 143 165 10,000 -60 Descending Seattle Center
06:21PM 47.1925 -121.2083 287° West 141 162 10,000  Level Seattle Center
06:22PM 47.2033 -121.2597 287° West 134 154 10,000  Level Seattle Center
06:23PM 47.2158 -121.3125 289° West 128 147 10,000  Level Seattle Center
06:23PM 47.2258 -121.3558 289° West 130 150 10,000  Level Seattle Center
06:25PM 47.2394 -121.4142 289° West 133 153 10,000 -120 Level Seattle Center
06:26PM 47.2514 -121.4694 288° West 141 162 9,800 -360 Descending Seattle Center
06:27PM 47.2644 -121.5275 288° West 154 177 9,400 -540 Descending Seattle Center
06:27PM 47.2739 -121.5811 285° West 148 170 8,800 -600 Descending Seattle Center
06:28PM 47.2858 -121.6267 291° West 146 168 8,400 -540 Descending Seattle Center
06:29PM 47.2897 -121.6458 287° West 145 167 8,200 -660 Descending Seattle Center
06:30PM 47.3019 -121.6964 290° West 151 174 7,700 -600 Descending Seattle Center
06:31PM 47.3144 -121.7617 286° West 161 185 7,100 -540 Descending Seattle Center
06:32PM 47.3275 -121.8294 286° West 159 183 6,600 -480 Descending Seattle Center
06:33PM 47.3364 -121.8900 282° West 153 176 6,200 -540 Descending Seattle Center
06:33PM 47.3522 -121.9336 298° West 158 182 5,700 -600 Descending Seattle Center
06:34PM 47.3586 -121.9511 298° West 156 180 5,600 -480 Descending Seattle Center
06:35PM 47.3797 -121.9969 304° West 164 189 5,200 -360 Descending Seattle Center
06:36PM 47.4042 -122.0489 305° West 156 180 5,000 -120 Descending Seattle Center
06:37PM 47.4278 -122.0981 305° West 141 162 5,000  Level Seattle Center
06:38PM 47.4433 -122.1419 298° West 136 157 5,000  Level Seattle Center
06:38PM 47.4469 -122.1553 292° West 136 157 5,000 -240 Level Seattle Center
06:39PM 47.4550 -122.2044 284° West 135 155 4,800 -300 Descending Seattle Center
06:40PM 47.4636 -122.2556 284° West 148 170 4,500 -540 Descending Seattle Center
06:40PM 47.4642 -122.2750 272° West 150 173 4,200 -420 Descending Seattle Center
06:41PM 47.4697 -122.3242 280° West 165 190 4,100 -240 Descending Seattle Center
06:41PM 47.4714 -122.3381 280° West 158 182 4,000 -480 Descending Seattle Center
06:41PM 47.4908 -122.3717 311° West 163 188 3,700 -540 Descending Seattle Center
06:42PM 47.5031 -122.3881 318° Northwest 161 185 3,500 -660 Descending Seattle Center
06:43PM 47.5286 -122.4164 323° Northwest 167 192 3,000 -600 Descending Seattle Center
06:43PM 47.5417 -122.4258 334° Northwest 167 192 2,900 -540 Descending Seattle Center
06:44PM 47.5703 -122.4492 331° Northwest 162 186 2,500 -540 Descending Seattle Center
06:44PM 47.5803 -122.4578 330° Northwest 161 185 2,400 -300 Descending Seattle Center
06:45PM 47.6100 -122.4833 330° Northwest 155 178 2,200 -240 Descending Seattle Center
06:45PM 47.6181 -122.4883 337° Northwest 154 177 2,200  Level Seattle Center
06:46PM 47.6481 -122.5017 343° North 145 167 2,200  Level Seattle Center
06:46PM 47.6569 -122.5031 354° North 145 167 2,200  Level Seattle Center
06:47PM 47.6769 -122.4758 42° Northeast 144 166 2,200  Level Seattle Center
06:47PM 47.6750 -122.4572 99° East 142 163 2,200 60 Level Seattle Center
06:47PM 47.6681 -122.4317 112° Southeast 126 145 2,300  Climbing Seattle Center
06:48PM 47.6603 -122.4097 118° Southeast 128 147 2,200  Descending Seattle Center
06:49PM 47.6408 -122.3939 151° Southeast 119 137 2,300  Climbing Seattle Center
06:49PM 47.6286 -122.3858 156° South 116 133 2,200 -600 Descending Seattle Center
06:50PM 47.6133 -122.3731 151° Southeast 111 128 1,700 -720 Descending Seattle Center
06:50PM 47.6008 -122.3628 151° Southeast 114 131 1,500 -600 Descending Seattle Center
06:51PM 47.5850 -122.3492 150° Southeast 111 128 1,100 -600 Descending Seattle Center
06:51PM 47.5747 -122.3406 151° Southeast 110 127 900 -600 Descending Seattle Center
06:52PM 47.5567 -122.3253 150° Southeast 110 127 400 -360 Descending Seattle Center
06:53PM 47.5258 -122.2994 150° Southeast 110 127 200 -180 Descending Seattle Center